Time;durP1;ratioP1;P1;durP2;ratioP2;P2;SDS_P1;SDS_P2;PMS_P1;PMS_P2;Temp;Humidity;BMP_temperature;BMP_pressure;BME280_temperature;BME280_humidity;BME280_pressure;Samples;Min_cycle;Max_cycle;Signal;HPM_P1;HPM_P2
2023/03/01 00:00:11;;;;;;;3.42;1.73;;;14.60;60.20;;;;;;10484710;28;20024;-54
2023/03/01 00:05:12;;;;;;;3.72;1.98;;;14.50;60.20;;;;;;10458982;28;20530;-54
2023/03/01 00:10:13;;;;;;;2.78;1.55;;;14.50;60.30;;;;;;10471651;28;20070;-55
2023/03/01 00:15:13;;;;;;;2.35;1.40;;;14.50;60.20;;;;;;10457604;28;20056;-55
2023/03/01 00:20:14;;;;;;;2.45;1.67;;;14.50;60.30;;;;;;10467573;28;20064;-54
2023/03/01 00:25:15;;;;;;;2.90;1.80;;;14.40;60.20;;;;;;10453536;28;20021;-54
2023/03/01 00:30:16;;;;;;;2.97;1.27;;;14.40;60.20;;;;;;10476150;28;20479;-54
2023/03/01 00:35:16;;;;;;;2.45;1.40;;;14.40;60.20;;;;;;10488083;28;20483;-54
2023/03/01 00:40:17;;;;;;;2.38;1.38;;;14.40;60.20;;;;;;10463022;28;20104;-54
2023/03/01 00:45:18;;;;;;;2.70;1.52;;;14.40;60.20;;;;;;10464128;28;20040;-55
2023/03/01 00:50:19;;;;;;;2.13;1.40;;;14.30;60.20;;;;;;10454607;28;20805;-55
2023/03/01 00:55:20;;;;;;;2.42;1.58;;;14.30;60.20;;;;;;10446466;28;20036;-53
2023/03/01 01:00:21;;;;;;;1.85;1.30;;;14.30;60.80;;;;;;10459253;28;20142;-55
2023/03/01 01:05:22;;;;;;;3.17;1.80;;;14.30;60.20;;;;;;10457894;28;20041;-55
2023/03/01 01:10:22;;;;;;;2.33;1.50;;;14.30;60.10;;;;;;10476668;28;20071;-54
2023/03/01 01:15:23;;;;;;;2.13;1.30;;;14.20;60.20;;;;;;10459229;28;20027;-55
2023/03/01 01:20:24;;;;;;;2.20;1.58;;;14.20;60.20;;;;;;10466263;28;20052;-55
2023/03/01 01:25:24;;;;;;;2.33;1.40;;;14.20;60.30;;;;;;10461598;28;20037;-55
2023/03/01 01:30:25;;;;;;;2.15;1.55;;;14.20;60.20;;;;;;10460913;28;20025;-53
2023/03/01 01:35:27;;;;;;;2.95;1.98;;;14.20;60.20;;;;;;10474546;28;20503;-52
2023/03/01 01:40:27;;;;;;;4.10;1.92;;;14.20;60.20;;;;;;10476608;28;20055;-55
2023/03/01 01:45:35;;;;;;;2.22;1.65;;;14.10;60.10;;;;;;10476090;28;20802;-54
2023/03/01 01:50:38;;;;;;;2.45;1.70;;;14.10;60.10;;;;;;10465340;28;20028;-54
2023/03/01 01:55:45;;;;;;;2.40;1.60;;;14.10;60.20;;;;;;10488753;28;20025;-55
2023/03/01 02:00:47;;;;;;;2.75;1.55;;;14.10;60.30;;;;;;10486539;28;20031;-54
2023/03/01 02:06:13;;;;;;;2.83;1.50;;;14.10;60.10;;;;;;10436769;28;20044;-54
2023/03/01 02:11:14;;;;;;;2.47;1.75;;;14.10;60.10;;;;;;10478365;28;20493;-55
2023/03/01 02:16:16;;;;;;;3.83;1.58;;;14.10;60.20;;;;;;10459583;28;20025;-53
2023/03/01 02:21:48;;;;;;;2.38;1.70;;;14.00;60.10;;;;;;10480475;28;20027;-54
2023/03/01 02:26:54;;;;;;;3.03;1.30;;;14.00;60.00;;;;;;10459519;28;20091;-55
2023/03/01 02:31:59;;;;;;;2.40;1.50;;;14.00;60.10;;;;;;10463529;28;20040;-54
2023/03/01 02:37:20;;;;;;;2.17;1.20;;;13.90;60.00;;;;;;10470768;28;20034;-54
2023/03/01 02:42:28;;;;;;;2.00;1.35;;;13.90;60.00;;;;;;10464152;28;20053;-55
2023/03/01 02:47:28;;;;;;;2.63;1.63;;;13.90;60.10;;;;;;10450947;28;20027;-54
2023/03/01 02:52:55;;;;;;;2.40;1.50;;;13.90;60.00;;;;;;10450837;28;20028;-55
2023/03/01 02:57:56;;;;;;;2.50;1.50;;;13.90;60.00;;;;;;10451441;28;20055;-54
2023/03/01 03:02:57;;;;;;;3.53;1.25;;;13.90;60.00;;;;;;10474558;28;20021;-53
2023/03/01 03:08:01;;;;;;;2.53;1.38;;;13.80;60.00;;;;;;10461561;28;20071;-55
2023/03/01 03:13:06;;;;;;;2.20;1.50;;;13.80;60.00;;;;;;10465309;28;20083;-54
2023/03/01 03:18:12;;;;;;;1.52;1.00;;;13.80;59.90;;;;;;10489584;28;20017;-55
2023/03/01 03:23:13;;;;;;;3.17;1.52;;;13.80;59.90;;;;;;10480151;28;20025;-59
2023/03/01 03:28:15;;;;;;;3.42;1.92;;;13.80;59.90;;;;;;10469670;28;20040;-55
2023/03/01 03:33:16;;;;;;;2.50;1.63;;;13.70;59.90;;;;;;10480559;28;20376;-53
2023/03/01 03:38:21;;;;;;;2.80;1.50;;;13.70;59.80;;;;;;10463593;28;20040;-51
2023/03/01 03:43:23;;;;;;;2.80;1.67;;;13.80;59.90;;;;;;10457343;28;20021;-52
2023/03/01 03:48:27;;;;;;;1.95;1.20;;;13.80;58.60;;;;;;10465774;28;20043;-55
2023/03/01 03:53:29;;;;;;;2.40;1.60;;;14.00;58.00;;;;;;10473845;28;20025;-53
2023/03/01 03:58:30;;;;;;;2.10;1.15;;;14.20;57.30;;;;;;10465451;28;20025;-55
2023/03/01 04:03:32;;;;;;;1.80;1.20;;;14.40;56.80;;;;;;10463685;28;20025;-55
2023/03/01 04:08:33;;;;;;;1.70;1.10;;;14.60;56.30;;;;;;10451718;28;20545;-55
2023/03/01 04:13:33;;;;;;;2.03;1.05;;;14.70;55.80;;;;;;10462085;28;20223;-54
2023/03/01 04:18:34;;;;;;;2.20;1.30;;;14.90;55.40;;;;;;10469997;28;20114;-54
2023/03/01 04:23:35;;;;;;;1.67;1.17;;;15.00;55.00;;;;;;10459743;28;20117;-53
2023/03/01 04:28:45;;;;;;;1.63;1.02;;;15.10;54.60;;;;;;10446924;28;20031;-55
2023/03/01 04:33:55;;;;;;;1.65;1.40;;;15.30;54.40;;;;;;10466702;28;20051;-55
2023/03/01 04:38:56;;;;;;;1.55;1.15;;;15.40;53.90;;;;;;10480077;28;20032;-55
2023/03/01 04:43:59;;;;;;;2.45;1.35;;;15.50;53.50;;;;;;10445141;28;20070;-54
2023/03/01 04:49:00;;;;;;;2.08;1.23;;;15.70;53.10;;;;;;10446248;28;20017;-54
2023/03/01 04:54:01;;;;;;;2.35;1.20;;;15.80;52.80;;;;;;10459292;28;20464;-54
2023/03/01 04:59:05;;;;;;;1.55;1.05;;;15.90;52.70;;;;;;10462813;28;20062;-54
2023/03/01 05:04:07;;;;;;;2.17;1.27;;;15.80;52.70;;;;;;10463999;28;20044;-53
2023/03/01 05:09:07;;;;;;;1.73;1.17;;;15.90;52.90;;;;;;10450892;28;20025;-53
2023/03/01 05:14:10;;;;;;;2.63;1.30;;;15.90;52.90;;;;;;10457637;28;20368;-52
2023/03/01 05:19:15;;;;;;;4.63;1.40;;;16.00;52.80;;;;;;10458080;28;20013;-52
2023/03/01 05:24:15;;;;;;;4.15;1.33;;;16.00;52.90;;;;;;10467088;28;20017;-53
2023/03/01 05:29:16;;;;;;;3.03;1.13;;;16.10;52.90;;;;;;10463521;28;20459;-54
2023/03/01 05:34:17;;;;;;;2.60;1.17;;;16.10;53.00;;;;;;10445025;28;20476;-55
2023/03/01 05:39:18;;;;;;;2.92;1.35;;;16.00;52.90;;;;;;10460997;28;20101;-54
2023/03/01 05:44:20;;;;;;;3.42;1.45;;;16.10;52.60;;;;;;10460417;28;20059;-52
2023/03/01 05:49:23;;;;;;;4.13;1.27;;;16.30;52.30;;;;;;10453540;28;20049;-53
2023/03/01 05:54:24;;;;;;;2.90;1.65;;;16.30;52.00;;;;;;10458479;28;20388;-54
2023/03/01 05:59:25;;;;;;;2.80;1.60;;;16.30;52.00;;;;;;10460255;28;20108;-54
2023/03/01 06:04:25;;;;;;;4.18;2.08;;;16.30;51.90;;;;;;10458486;28;20041;-52
2023/03/01 06:09:26;;;;;;;5.43;1.55;;;16.30;53.30;;;;;;10456092;28;20494;-51
2023/03/01 06:14:27;;;;;;;8.85;1.80;;;16.40;53.60;;;;;;10455150;28;20126;-50
2023/03/01 06:19:27;;;;;;;4.88;1.50;;;16.30;54.10;;;;;;10456013;28;20057;-53
2023/03/01 06:24:28;;;;;;;17.63;2.35;;;16.20;54.80;;;;;;10477559;28;20396;-49
2023/03/01 06:29:29;;;;;;;7.40;1.38;;;16.40;55.00;;;;;;10471840;28;20063;-49
2023/03/01 06:34:30;;;;;;;8.00;1.73;;;16.40;54.70;;;;;;10459149;28;20025;-49
2023/03/01 06:39:32;;;;;;;6.72;1.50;;;16.50;54.00;;;;;;10449904;28;20473;-51
2023/03/01 06:44:33;;;;;;;6.05;1.48;;;16.60;54.00;;;;;;10448544;28;20033;-49
2023/03/01 06:49:34;;;;;;;11.15;2.45;;;16.60;54.40;;;;;;10475368;28;20021;-50
2023/03/01 06:54:34;;;;;;;7.80;2.10;;;16.50;54.20;;;;;;10489538;28;20111;-52
2023/03/01 06:59:35;;;;;;;13.35;2.53;;;16.80;53.20;;;;;;10468391;28;20075;-49
2023/03/01 07:04:36;;;;;;;9.00;2.47;;;16.70;53.40;;;;;;10447824;28;20040;-52
2023/03/01 07:09:36;;;;;;;11.35;2.55;;;16.90;53.50;;;;;;10451227;28;20467;-50
2023/03/01 07:14:37;;;;;;;10.18;2.53;;;16.90;53.20;;;;;;10487088;28;20033;-53
2023/03/01 07:19:38;;;;;;;10.93;2.40;;;16.70;53.40;;;;;;10455833;28;20460;-52
2023/03/01 07:24:38;;;;;;;10.40;2.33;;;16.40;54.60;;;;;;10446295;28;20029;-53
2023/03/01 07:29:39;;;;;;;9.73;2.40;;;16.70;53.50;;;;;;10474498;28;20108;-52
2023/03/01 07:34:40;;;;;;;11.27;2.65;;;16.70;53.20;;;;;;10449094;28;20021;-52
2023/03/01 07:39:40;;;;;;;8.88;2.55;;;16.80;53.60;;;;;;10447181;28;20104;-52
2023/03/01 07:44:41;;;;;;;7.10;2.22;;;16.80;52.80;;;;;;10462093;28;20086;-52
2023/03/01 07:49:42;;;;;;;9.18;2.22;;;16.70;52.80;;;;;;10473510;28;20052;-53
2023/03/01 07:54:44;;;;;;;8.25;2.70;;;16.90;53.30;;;;;;10461341;28;20055;-55
2023/03/01 07:59:45;;;;;;;7.88;2.40;;;16.90;53.90;;;;;;10459432;28;20037;-53
2023/03/01 08:04:45;;;;;;;10.27;2.40;;;16.80;53.80;;;;;;10461421;28;20408;-51
2023/03/01 08:09:46;;;;;;;7.18;2.40;;;16.80;53.60;;;;;;10464749;28;20443;-52
2023/03/01 08:14:47;;;;;;;8.57;2.53;;;16.70;53.70;;;;;;10452287;28;20029;-50
2023/03/01 08:19:47;;;;;;;5.30;2.28;;;16.70;53.80;;;;;;10446743;28;20496;-54
2023/03/01 08:24:48;;;;;;;10.32;2.22;;;16.70;53.90;;;;;;10456870;28;20549;-53
2023/03/01 08:29:49;;;;;;;8.73;2.70;;;16.70;54.20;;;;;;10459400;28;20544;-54
2023/03/01 08:34:49;;;;;;;10.60;3.90;;;16.80;54.50;;;;;;10457627;28;20035;-49
2023/03/01 08:39:50;;;;;;;7.85;4.43;;;16.90;54.90;;;;;;10461656;28;20112;-51
2023/03/01 08:44:51;;;;;;;7.60;4.68;;;17.00;55.40;;;;;;10469393;28;20108;-52
2023/03/01 08:49:52;;;;;;;8.02;4.78;;;17.00;56.10;;;;;;10461978;28;20060;-52
2023/03/01 08:54:53;;;;;;;8.82;5.00;;;17.10;56.10;;;;;;10482351;28;20032;-48
2023/03/01 08:59:55;;;;;;;8.20;5.20;;;17.00;55.50;;;;;;10477753;28;20029;-48
2023/03/01 09:04:56;;;;;;;13.27;7.18;;;16.90;55.70;;;;;;10462198;28;20041;-50
2023/03/01 09:09:57;;;;;;;10.90;6.70;;;16.80;56.30;;;;;;10450669;28;20723;-52
2023/03/01 09:14:57;;;;;;;7.80;6.60;;;16.80;57.10;;;;;;10462100;28;20091;-48
2023/03/01 09:19:59;;;;;;;7.90;6.90;;;16.70;57.80;;;;;;10460211;28;20383;-52
2023/03/01 09:25:00;;;;;;;9.10;6.38;;;16.60;58.20;;;;;;10469441;28;20484;-52
2023/03/01 09:30:02;;;;;;;14.30;6.70;;;16.60;57.80;;;;;;10483402;28;20025;-49
2023/03/01 09:35:05;;;;;;;11.82;6.20;;;16.10;59.60;;;;;;10474272;28;20056;-49
2023/03/01 09:40:15;;;;;;;13.15;5.60;;;16.00;60.00;;;;;;10465273;28;20021;-50
2023/03/01 09:45:49;;;;;;;11.27;7.35;;;16.00;59.40;;;;;;10465573;28;20028;-47
2023/03/01 09:50:51;;;;;;;10.95;4.95;;;15.80;59.40;;;;;;10465978;28;20115;-50
2023/03/01 09:56:00;;;;;;;10.82;5.55;;;15.70;59.80;;;;;;10471079;28;20020;-53
2023/03/01 10:01:40;;;;;;;11.63;6.30;;;15.60;59.90;;;;;;10468565;28;20371;-49
2023/03/01 10:06:58;;;;;;;10.77;5.18;;;15.50;59.90;;;;;;10469530;28;20072;-49
2023/03/01 10:12:02;;;;;;;9.65;4.53;;;15.60;59.90;;;;;;10471692;28;20082;-51
2023/03/01 10:17:36;;;;;;;7.05;3.80;;;15.50;59.90;;;;;;10470295;28;20025;-49
2023/03/01 10:22:36;;;;;;;5.57;4.05;;;15.50;60.00;;;;;;10475235;28;20419;-49
2023/03/01 10:27:54;;;;;;;7.55;4.70;;;15.50;60.00;;;;;;10468001;28;20044;-50
2023/03/01 10:32:56;;;;;;;6.28;3.70;;;15.50;60.00;;;;;;10466133;28;20580;-49
2023/03/01 10:37:58;;;;;;;9.95;3.47;;;15.50;59.70;;;;;;10469243;28;20083;-49
2023/03/01 10:43:03;;;;;;;7.47;3.45;;;15.50;59.80;;;;;;10470578;28;20104;-52
2023/03/01 10:48:27;;;;;;;6.82;3.60;;;15.50;59.80;;;;;;10462382;28;20029;-47
2023/03/01 10:53:40;;;;;;;16.65;4.18;;;15.50;59.90;;;;;;10450078;28;20032;-47
2023/03/01 10:59:02;;;;;;;8.27;3.45;;;15.60;60.10;;;;;;10482299;28;20094;-48
2023/03/01 11:04:05;;;;;;;9.32;3.55;;;15.60;60.20;;;;;;10464444;28;20115;-47
2023/03/01 11:09:21;;;;;;;10.80;3.45;;;15.60;60.10;;;;;;10472166;28;20037;-48
2023/03/01 11:14:30;;;;;;;6.05;2.72;;;15.60;60.00;;;;;;10455965;28;20341;-48
2023/03/01 11:19:31;;;;;;;6.97;2.77;;;15.50;60.10;;;;;;10466365;28;20043;-48
2023/03/01 11:24:54;;;;;;;6.50;2.42;;;15.60;59.80;;;;;;10490277;28;20024;-48
2023/03/01 11:30:16;;;;;;;6.25;2.20;;;15.60;60.10;;;;;;10490610;28;20038;-49
2023/03/01 11:35:25;;;;;;;4.70;2.58;;;15.70;60.20;;;;;;10489210;28;20024;-50
2023/03/01 11:40:39;;;;;;;5.47;2.47;;;15.60;60.20;;;;;;10489305;28;20720;-50
2023/03/01 11:45:57;;;;;;;4.07;2.28;;;15.70;60.30;;;;;;10482778;28;20111;-49
2023/03/01 11:51:05;;;;;;;3.92;2.22;;;15.70;60.30;;;;;;10488182;28;20024;-48
2023/03/01 11:56:26;;;;;;;4.45;2.38;;;15.70;60.30;;;;;;10489691;28;20023;-48
2023/03/01 12:02:02;;;;;;;4.15;1.98;;;15.80;60.30;;;;;;10488580;28;20035;-48
2023/03/01 12:07:39;;;;;;;5.95;2.70;;;15.70;60.40;;;;;;10487875;28;20102;-51
2023/03/01 12:13:05;;;;;;;4.00;1.60;;;15.80;60.40;;;;;;10476554;28;20047;-52
2023/03/01 12:18:23;;;;;;;3.92;1.80;;;15.80;60.30;;;;;;10487212;28;20012;-50
2023/03/01 12:23:59;;;;;;;6.18;2.03;;;15.80;60.20;;;;;;10486880;28;20028;-48
2023/03/01 12:29:31;;;;;;;4.93;3.00;;;15.80;60.20;;;;;;10476089;28;20767;-49
2023/03/01 12:35:02;;;;;;;2.65;1.67;;;15.80;60.20;;;;;;10486594;28;20024;-51
2023/03/01 12:40:44;;;;;;;3.78;2.47;;;15.90;60.30;;;;;;10481333;28;20021;-50
2023/03/01 12:46:32;;;;;;;2.58;1.70;;;15.80;60.30;;;;;;10482630;28;20453;-50
2023/03/01 12:51:35;;;;;;;5.03;1.90;;;15.80;60.40;;;;;;10486129;28;20028;-52
2023/03/01 12:56:38;;;;;;;3.67;1.75;;;15.80;60.20;;;;;;10486932;28;20032;-49
2023/03/01 13:02:20;;;;;;;5.03;1.73;;;15.70;60.10;;;;;;10488019;28;20013;-50
2023/03/01 13:07:38;;;;;;;7.18;2.00;;;15.70;60.20;;;;;;10487654;28;20082;-49
2023/03/01 13:13:13;;;;;;;7.57;2.10;;;15.70;60.30;;;;;;10473683;28;20029;-50
2023/03/01 13:18:16;;;;;;;9.27;2.70;;;15.70;60.30;;;;;;10487334;28;20025;-52
2023/03/01 13:23:22;;;;;;;6.90;1.85;;;15.70;60.30;;;;;;10487212;28;20023;-50
2023/03/01 13:28:46;;;;;;;12.27;3.35;;;15.80;59.90;;;;;;10493005;28;20372;-51
2023/03/01 13:33:47;;;;;;;13.43;3.72;;;15.80;60.10;;;;;;10494326;28;20024;-53
2023/03/01 13:38:58;;;;;;;16.10;4.22;;;15.80;60.50;;;;;;10476793;28;20074;-47
2023/03/01 13:43:59;;;;;;;9.00;2.70;;;15.90;60.60;;;;;;10508552;28;20025;-52
2023/03/01 13:49:00;;;;;;;13.13;3.65;;;15.90;60.90;;;;;;10493254;28;20036;-51
2023/03/01 13:54:01;;;;;;;19.52;4.15;;;15.90;60.70;;;;;;10493688;28;20021;-48
2023/03/01 13:59:12;;;;;;;13.80;3.10;;;15.90;60.80;;;;;;10490307;28;20644;-50
2023/03/01 14:04:25;;;;;;;13.13;3.15;;;15.90;60.50;;;;;;10492344;28;20190;-50
2023/03/01 14:09:31;;;;;;;10.07;2.90;;;15.90;60.60;;;;;;10490657;28;20035;-51
2023/03/01 14:14:56;;;;;;;9.10;3.58;;;15.80;59.90;;;;;;10491498;28;20052;-53
2023/03/01 14:20:26;;;;;;;15.05;3.15;;;15.70;59.30;;;;;;10491459;28;20037;-51
2023/03/01 14:25:33;;;;;;;8.73;2.90;;;15.70;58.80;;;;;;10463860;28;20414;-51
2023/03/01 14:30:43;;;;;;;8.80;2.70;;;15.70;58.40;;;;;;10491563;28;20048;-47
2023/03/01 14:35:53;;;;;;;6.88;2.47;;;15.70;58.10;;;;;;10480310;28;20510;-51
2023/03/01 14:41:01;;;;;;;9.82;3.28;;;15.60;56.80;;;;;;10489060;28;20026;-51
2023/03/01 14:46:02;;;;;;;9.88;2.35;;;15.70;57.30;;;;;;10490575;28;20016;-50
2023/03/01 14:51:05;;;;;;;9.77;2.55;;;15.70;57.70;;;;;;10491589;28;20032;-51
2023/03/01 14:56:17;;;;;;;18.02;3.85;;;15.70;57.10;;;;;;10490741;28;20028;-50
2023/03/01 15:01:18;;;;;;;15.63;3.78;;;15.70;57.00;;;;;;10479816;28;20021;-51
2023/03/01 15:06:22;;;;;;;16.70;3.15;;;15.70;57.20;;;;;;10481712;28;20068;-49
2023/03/01 15:11:29;;;;;;;18.40;4.07;;;15.70;57.10;;;;;;10487921;28;20044;-52
2023/03/01 15:16:38;;;;;;;28.80;3.75;;;15.70;56.90;;;;;;10489634;28;20066;-49
2023/03/01 15:21:49;;;;;;;14.93;3.47;;;15.60;56.10;;;;;;10489470;28;20058;-50
2023/03/01 15:27:06;;;;;;;24.63;4.90;;;15.60;56.40;;;;;;10489339;28;20089;-48
2023/03/01 15:32:39;;;;;;;25.92;6.22;;;15.60;56.50;;;;;;10488386;28;20016;-52
2023/03/01 15:37:48;;;;;;;28.75;5.60;;;15.60;56.50;;;;;;10490704;28;20029;-52
2023/03/01 15:42:50;;;;;;;27.85;5.07;;;15.50;56.60;;;;;;10488028;28;20040;-50
2023/03/01 15:48:26;;;;;;;26.10;5.53;;;15.50;57.60;;;;;;10486703;28;20063;-48
2023/03/01 15:53:27;;;;;;;23.33;3.88;;;15.60;57.10;;;;;;10485024;28;20083;-48
2023/03/01 15:58:29;;;;;;;13.68;4.13;;;15.60;56.70;;;;;;10481673;28;20032;-50
2023/03/01 16:03:29;;;;;;;17.23;4.47;;;15.60;56.80;;;;;;10485021;28;20647;-53
2023/03/01 16:08:30;;;;;;;14.93;4.15;;;15.50;57.40;;;;;;10479761;28;20086;-54
2023/03/01 16:13:31;;;;;;;11.00;2.83;;;15.50;58.20;;;;;;10497131;28;20020;-52
2023/03/01 16:18:32;;;;;;;14.77;3.50;;;15.40;58.60;;;;;;10487964;28;20023;-50
2023/03/01 16:23:33;;;;;;;13.50;3.17;;;15.50;59.10;;;;;;10487530;28;20069;-52
2023/03/01 16:28:33;;;;;;;10.13;2.05;;;15.50;59.30;;;;;;10488223;28;20128;-52
2023/03/01 16:33:35;;;;;;;12.13;3.38;;;15.40;59.50;;;;;;10473617;28;20541;-53
2023/03/01 16:38:36;;;;;;;17.52;4.65;;;15.40;59.70;;;;;;10488181;28;20035;-49
2023/03/01 16:43:36;;;;;;;21.77;7.78;;;15.50;61.60;;;;;;10475070;28;20021;-50
2023/03/01 16:48:38;;;;;;;16.65;6.18;;;15.40;60.30;;;;;;10430178;28;20110;-51
2023/03/01 16:53:40;;;;;;;15.00;7.10;;;15.30;59.50;;;;;;10486735;28;20023;-52
2023/03/01 16:58:42;;;;;;;28.00;16.13;;;15.40;59.10;;;;;;10473247;28;20508;-54
2023/03/01 17:03:44;;;;;;;32.42;16.02;;;15.80;63.30;;;;;;10485356;28;20053;-52
2023/03/01 17:08:46;;;;;;;34.25;15.40;;;16.40;62.40;;;;;;10485475;28;21217;-50
2023/03/01 17:13:48;;;;;;;33.72;13.02;;;16.70;61.30;;;;;;10502259;28;20040;-53
2023/03/01 17:18:49;;;;;;;20.17;11.52;;;16.70;60.40;;;;;;10485484;28;20470;-54
2023/03/01 17:23:55;;;;;;;27.02;11.68;;;16.60;59.20;;;;;;10477101;28;20096;-49
2023/03/01 17:28:57;;;;;;;27.38;10.65;;;16.60;60.60;;;;;;10486719;28;20029;-51
2023/03/01 17:33:58;;;;;;;22.92;10.30;;;16.60;60.60;;;;;;10485931;28;20055;-49
2023/03/01 17:38:59;;;;;;;19.33;8.73;;;16.60;60.90;;;;;;10486940;28;20492;-52
2023/03/01 17:44:00;;;;;;;20.10;8.30;;;16.40;61.00;;;;;;10486906;28;20100;-50
2023/03/01 17:49:01;;;;;;;16.33;9.48;;;16.40;60.30;;;;;;10482257;28;20031;-50
2023/03/01 17:54:03;;;;;;;18.52;9.32;;;16.40;59.60;;;;;;10477511;28;20024;-53
2023/03/01 17:59:05;;;;;;;20.05;8.85;;;16.30;59.60;;;;;;10478316;28;20020;-52
2023/03/01 18:04:06;;;;;;;17.60;8.35;;;16.40;59.00;;;;;;10484317;28;20512;-53
2023/03/01 18:09:07;;;;;;;20.63;8.43;;;16.40;59.00;;;;;;10469034;28;20127;-53
2023/03/01 18:14:08;;;;;;;17.52;7.30;;;16.50;58.80;;;;;;10465600;28;20656;-52
2023/03/01 18:19:10;;;;;;;23.33;7.53;;;16.50;58.60;;;;;;10469879;28;20033;-54
2023/03/01 18:24:11;;;;;;;17.55;6.90;;;16.40;58.70;;;;;;10465081;28;20357;-53
2023/03/01 18:29:12;;;;;;;17.92;7.82;;;16.30;59.10;;;;;;10455896;28;20032;-52
2023/03/01 18:34:12;;;;;;;20.70;8.25;;;16.40;59.80;;;;;;10465976;28;20694;-54
2023/03/01 18:39:16;;;;;;;17.42;7.70;;;16.30;59.40;;;;;;10466543;28;20100;-54
2023/03/01 18:44:17;;;;;;;15.32;8.18;;;16.30;59.60;;;;;;10471661;28;20112;-56
2023/03/01 18:49:18;;;;;;;15.38;7.95;;;16.20;60.80;;;;;;10490610;28;20033;-56
2023/03/01 18:54:19;;;;;;;14.02;6.30;;;16.20;59.80;;;;;;10490589;28;20028;-53
2023/03/01 18:59:19;;;;;;;14.38;7.32;;;16.50;59.50;;;;;;10497373;28;20597;-55
2023/03/01 19:04:20;;;;;;;14.88;7.47;;;16.50;59.10;;;;;;10474311;28;20052;-55
2023/03/01 19:09:21;;;;;;;12.07;7.40;;;16.40;59.00;;;;;;10468948;28;20051;-55
2023/03/01 19:14:21;;;;;;;13.48;7.60;;;16.50;58.90;;;;;;10488270;28;20103;-54
2023/03/01 19:19:22;;;;;;;10.07;7.03;;;16.50;58.70;;;;;;10479916;28;20078;-54
2023/03/01 19:24:23;;;;;;;18.65;6.85;;;16.40;58.70;;;;;;10497696;28;20048;-55
2023/03/01 19:29:23;;;;;;;12.18;6.55;;;16.50;58.60;;;;;;10483647;28;20044;-54
2023/03/01 19:34:24;;;;;;;13.07;6.57;;;16.50;58.50;;;;;;10489471;28;20096;-55
2023/03/01 19:39:26;;;;;;;9.40;6.65;;;16.40;58.60;;;;;;10490636;28;20051;-54
2023/03/01 19:44:27;;;;;;;11.30;6.38;;;16.50;58.40;;;;;;10490160;28;20048;-53
2023/03/01 19:49:29;;;;;;;9.75;6.25;;;16.50;58.20;;;;;;10477536;28;20163;-53
2023/03/01 19:54:29;;;;;;;10.02;6.43;;;16.50;58.00;;;;;;10488482;28;20017;-54
2023/03/01 19:59:30;;;;;;;10.93;6.50;;;16.50;58.00;;;;;;10462479;28;20023;-55
2023/03/01 20:04:30;;;;;;;10.30;5.65;;;16.50;58.20;;;;;;10487892;28;20810;-56
2023/03/01 20:09:31;;;;;;;14.57;7.13;;;16.50;57.90;;;;;;10489223;28;20063;-55
2023/03/01 20:14:32;;;;;;;11.40;5.88;;;16.50;57.80;;;;;;10489592;28;20100;-53
2023/03/01 20:19:32;;;;;;;12.05;6.15;;;16.60;57.60;;;;;;10487432;28;20136;-53
2023/03/01 20:24:33;;;;;;;14.20;6.07;;;16.60;57.30;;;;;;10489306;28;20051;-53
2023/03/01 20:29:34;;;;;;;13.45;5.43;;;16.50;57.40;;;;;;10488742;28;20119;-53
2023/03/01 20:34:36;;;;;;;10.93;4.97;;;16.40;57.60;;;;;;10488011;28;20016;-55
2023/03/01 20:39:36;;;;;;;7.35;5.20;;;16.30;57.70;;;;;;10480936;28;20082;-51
2023/03/01 20:44:41;;;;;;;8.10;4.75;;;16.20;57.90;;;;;;10478452;28;20025;-55
2023/03/01 20:49:42;;;;;;;8.13;4.50;;;16.10;58.20;;;;;;10482391;28;20548;-53
2023/03/01 20:54:43;;;;;;;9.45;5.65;;;16.10;58.50;;;;;;10487058;28;20020;-54
2023/03/01 20:59:44;;;;;;;6.82;4.57;;;16.00;58.80;;;;;;10487180;28;20484;-54
2023/03/01 21:04:44;;;;;;;10.35;4.28;;;15.80;59.10;;;;;;10486111;28;20452;-59
2023/03/01 21:09:45;;;;;;;8.00;5.03;;;15.70;59.40;;;;;;10476907;28;20102;-54
2023/03/01 21:14:46;;;;;;;10.18;5.15;;;15.60;59.80;;;;;;10487694;28;20092;-54
2023/03/01 21:19:46;;;;;;;6.43;3.80;;;15.60;60.00;;;;;;10488008;28;20040;-52
2023/03/01 21:24:47;;;;;;;6.18;4.10;;;15.50;60.10;;;;;;10483702;28;20023;-52
2023/03/01 21:29:48;;;;;;;7.25;4.25;;;15.50;60.20;;;;;;10485945;28;20021;-54
2023/03/01 21:34:49;;;;;;;8.85;4.82;;;15.40;60.10;;;;;;10486225;28;20054;-54
2023/03/01 21:39:49;;;;;;;6.00;4.03;;;15.40;60.20;;;;;;10487195;28;20099;-51
2023/03/01 21:44:50;;;;;;;5.57;3.75;;;15.30;60.70;;;;;;10491852;28;20044;-53
2023/03/01 21:49:51;;;;;;;8.20;3.97;;;15.30;60.20;;;;;;10482140;28;20431;-54
2023/03/01 21:54:51;;;;;;;6.55;3.80;;;15.20;60.80;;;;;;10493480;28;20103;-53
2023/03/01 21:59:52;;;;;;;9.25;4.00;;;15.20;60.20;;;;;;10494785;28;20033;-55
2023/03/01 22:04:56;;;;;;;5.75;3.60;;;15.20;60.30;;;;;;10510369;28;20400;-54
2023/03/01 22:09:57;;;;;;;4.53;3.15;;;15.10;60.20;;;;;;10494538;28;20471;-54
2023/03/01 22:14:57;;;;;;;7.28;3.92;;;15.10;60.30;;;;;;10494419;28;20027;-52
2023/03/01 22:19:58;;;;;;;4.85;3.10;;;15.00;60.50;;;;;;10492723;28;20063;-54
2023/03/01 22:24:59;;;;;;;4.82;3.50;;;15.00;60.50;;;;;;10494124;28;20075;-54
2023/03/01 22:30:00;;;;;;;5.03;3.63;;;15.00;60.50;;;;;;10493758;28;20069;-55
2023/03/01 22:35:00;;;;;;;4.32;2.80;;;14.90;60.50;;;;;;10493472;28;20376;-52
2023/03/01 22:40:01;;;;;;;6.57;3.72;;;14.90;60.50;;;;;;10492285;28;20081;-53
2023/03/01 22:45:02;;;;;;;4.78;2.92;;;14.90;60.60;;;;;;10493158;28;20158;-52
2023/03/01 22:50:06;;;;;;;5.00;3.28;;;14.90;60.60;;;;;;10479610;28;20020;-56
2023/03/01 22:55:08;;;;;;;4.63;3.20;;;14.80;60.60;;;;;;10487226;28;20029;-53
2023/03/01 23:00:11;;;;;;;5.93;3.30;;;14.80;60.60;;;;;;10491017;28;20036;-53
2023/03/01 23:05:12;;;;;;;5.35;3.03;;;14.80;60.60;;;;;;10490936;28;20093;-53
2023/03/01 23:10:14;;;;;;;4.85;2.47;;;14.80;60.60;;;;;;10492399;28;20023;-55
2023/03/01 23:15:15;;;;;;;5.45;3.17;;;14.80;60.60;;;;;;10491352;28;20060;-55
2023/03/01 23:20:16;;;;;;;4.50;3.00;;;14.80;60.60;;;;;;10491842;28;20024;-53
2023/03/01 23:25:17;;;;;;;4.03;2.50;;;14.70;60.50;;;;;;10491838;28;20043;-54
2023/03/01 23:30:18;;;;;;;3.63;2.60;;;14.70;60.60;;;;;;10491096;28;20100;-54
2023/03/01 23:35:18;;;;;;;4.22;2.95;;;14.70;60.60;;;;;;10490268;28;20035;-55
2023/03/01 23:40:19;;;;;;;4.70;2.70;;;14.70;60.70;;;;;;10490046;28;20078;-53
2023/03/01 23:45:20;;;;;;;4.20;2.70;;;14.70;60.70;;;;;;10489410;28;20033;-53
2023/03/01 23:50:21;;;;;;;4.72;2.60;;;14.60;60.70;;;;;;10490531;28;20636;-54
2023/03/01 23:55:22;;;;;;;3.88;2.65;;;14.60;60.80;;;;;;10499780;28;20020;-53
